sensor_id;sensor_type;location;lat;lon;timestamp;pressure;altitude;pressure_sealevel;temperature;humidity
48424;BME280;34232;42.502;26.014;2023-04-26T00:02:13;99084.78;;;14.61;93.64
48424;BME280;34232;42.502;26.014;2023-04-26T00:04:39;99080.78;;;14.65;93.49
48424;BME280;34232;42.502;26.014;2023-04-26T00:07:05;99086.22;;;14.72;93.39
48424;BME280;34232;42.502;26.014;2023-04-26T00:09:31;99088.13;;;14.78;93.08
48424;BME280;34232;42.502;26.014;2023-04-26T00:11:57;99083.66;;;14.79;93.29
48424;BME280;34232;42.502;26.014;2023-04-26T00:14:22;99080.00;;;14.80;93.06
48424;BME280;34232;42.502;26.014;2023-04-26T00:16:47;99081.66;;;14.81;92.64
48424;BME280;34232;42.502;26.014;2023-04-26T00:19:13;99074.34;;;14.83;92.54
48424;BME280;34232;42.502;26.014;2023-04-26T00:21:38;99076.84;;;14.84;92.03
48424;BME280;34232;42.502;26.014;2023-04-26T00:24:06;99080.97;;;14.87;92.52
48424;BME280;34232;42.502;26.014;2023-04-26T00:26:31;99076.31;;;14.89;92.00
48424;BME280;34232;42.502;26.014;2023-04-26T00:28:58;99075.66;;;14.87;91.84
48424;BME280;34232;42.502;26.014;2023-04-26T00:31:23;99076.00;;;14.84;91.94
48424;BME280;34232;42.502;26.014;2023-04-26T00:33:49;99075.09;;;14.77;92.52
48424;BME280;34232;42.502;26.014;2023-04-26T00:36:15;99070.31;;;14.72;91.75
48424;BME280;34232;42.502;26.014;2023-04-26T00:38:43;99075.44;;;14.74;90.05
48424;BME280;34232;42.502;26.014;2023-04-26T00:41:08;99070.00;;;14.67;90.10
48424;BME280;34232;42.502;26.014;2023-04-26T00:43:33;99062.25;;;14.65;90.08
48424;BME280;34232;42.502;26.014;2023-04-26T00:45:59;99070.53;;;14.62;91.00
48424;BME280;34232;42.502;26.014;2023-04-26T00:48:24;99060.31;;;14.59;89.98
48424;BME280;34232;42.502;26.014;2023-04-26T00:50:50;99062.97;;;14.59;89.82
48424;BME280;34232;42.502;26.014;2023-04-26T00:53:16;99066.94;;;14.55;90.39
48424;BME280;34232;42.502;26.014;2023-04-26T00:55:41;99066.94;;;14.55;90.16
48424;BME280;34232;42.502;26.014;2023-04-26T00:58:07;99063.66;;;14.53;90.12
48424;BME280;34232;42.502;26.014;2023-04-26T01:00:32;99065.31;;;14.54;89.09
48424;BME280;34232;42.502;26.014;2023-04-26T01:02:58;99062.00;;;14.52;89.03
48424;BME280;34232;42.502;26.014;2023-04-26T01:05:23;99069.28;;;14.50;89.00
48424;BME280;34232;42.502;26.014;2023-04-26T01:07:48;99073.28;;;14.46;89.34
48424;BME280;34232;42.502;26.014;2023-04-26T01:10:15;99064.72;;;14.44;89.62
48424;BME280;34232;42.502;26.014;2023-04-26T01:12:40;99068.38;;;14.43;90.44
48424;BME280;34232;42.502;26.014;2023-04-26T01:15:06;99070.34;;;14.41;90.83
48424;BME280;34232;42.502;26.014;2023-04-26T01:17:31;99071.66;;;14.37;91.45
48424;BME280;34232;42.502;26.014;2023-04-26T01:19:56;99067.03;;;14.39;91.90
48424;BME280;34232;42.502;26.014;2023-04-26T01:22:22;99067.53;;;14.43;92.69
48424;BME280;34232;42.502;26.014;2023-04-26T01:24:47;99066.34;;;14.45;92.60
48424;BME280;34232;42.502;26.014;2023-04-26T01:27:14;99060.34;;;14.51;92.32
48424;BME280;34232;42.502;26.014;2023-04-26T01:29:40;99065.31;;;14.54;92.58
48424;BME280;34232;42.502;26.014;2023-04-26T01:32:06;99053.41;;;14.50;92.39
48424;BME280;34232;42.502;26.014;2023-04-26T01:34:31;99051.28;;;14.46;92.68
48424;BME280;34232;42.502;26.014;2023-04-26T01:36:58;99050.75;;;14.50;92.71
48424;BME280;34232;42.502;26.014;2023-04-26T01:39:24;99052.88;;;14.55;92.96
48424;BME280;34232;42.502;26.014;2023-04-26T01:41:49;99047.25;;;14.58;92.88
48424;BME280;34232;42.502;26.014;2023-04-26T01:44:15;99042.38;;;14.61;93.06
48424;BME280;34232;42.502;26.014;2023-04-26T01:46:40;99035.75;;;14.65;92.08
48424;BME280;34232;42.502;26.014;2023-04-26T01:49:06;99035.56;;;14.67;91.16
48424;BME280;34232;42.502;26.014;2023-04-26T01:51:31;99031.19;;;14.59;91.05
48424;BME280;34232;42.502;26.014;2023-04-26T01:53:56;99030.53;;;14.57;91.29
48424;BME280;34232;42.502;26.014;2023-04-26T01:56:22;99038.81;;;14.54;91.28
48424;BME280;34232;42.502;26.014;2023-04-26T01:58:47;99028.56;;;14.51;90.41
48424;BME280;34232;42.502;26.014;2023-04-26T02:01:13;99030.22;;;14.52;90.46
48424;BME280;34232;42.502;26.014;2023-04-26T02:03:38;99028.91;;;14.48;90.28
48424;BME280;34232;42.502;26.014;2023-04-26T02:06:03;99023.97;;;14.45;89.93
48424;BME280;34232;42.502;26.014;2023-04-26T02:08:29;99023.69;;;14.40;90.49
48424;BME280;34232;42.502;26.014;2023-04-26T02:10:54;99023.69;;;14.32;90.87
48424;BME280;34232;42.502;26.014;2023-04-26T02:13:19;99026.91;;;14.27;90.55
48424;BME280;34232;42.502;26.014;2023-04-26T02:15:45;99026.41;;;14.24;91.55
48424;BME280;34232;42.502;26.014;2023-04-26T02:18:11;99024.75;;;14.23;91.30
48424;BME280;34232;42.502;26.014;2023-04-26T02:20:39;99030.22;;;14.21;91.38
48424;BME280;34232;42.502;26.014;2023-04-26T02:23:07;99021.47;;;14.21;91.32
48424;BME280;34232;42.502;26.014;2023-04-26T02:25:32;99021.81;;;14.18;91.77
48424;BME280;34232;42.502;26.014;2023-04-26T02:27:57;99013.88;;;14.18;92.55
48424;BME280;34232;42.502;26.014;2023-04-26T02:30:25;99015.34;;;14.20;91.80
48424;BME280;34232;42.502;26.014;2023-04-26T02:32:54;99018.50;;;14.16;91.43
48424;BME280;34232;42.502;26.014;2023-04-26T02:35:19;99022.16;;;14.15;91.88
48424;BME280;34232;42.502;26.014;2023-04-26T02:37:45;99024.16;;;14.13;93.10
48424;BME280;34232;42.502;26.014;2023-04-26T02:40:13;99027.00;;;14.11;93.69
48424;BME280;34232;42.502;26.014;2023-04-26T02:42:38;99027.00;;;14.11;94.05
48424;BME280;34232;42.502;26.014;2023-04-26T02:45:03;99027.00;;;14.11;94.31
48424;BME280;34232;42.502;26.014;2023-04-26T02:47:29;99022.31;;;14.13;94.56
48424;BME280;34232;42.502;26.014;2023-04-26T02:49:54;99022.16;;;14.15;94.31
48424;BME280;34232;42.502;26.014;2023-04-26T02:52:19;99017.56;;;14.09;95.12
48424;BME280;34232;42.502;26.014;2023-04-26T02:54:45;99019.56;;;14.07;95.98
48424;BME280;34232;42.502;26.014;2023-04-26T02:57:10;99018.56;;;14.08;95.79
48424;BME280;34232;42.502;26.014;2023-04-26T02:59:36;99008.63;;;14.10;95.76
48424;BME280;34232;42.502;26.014;2023-04-26T03:02:01;99020.56;;;14.06;96.15
48424;BME280;34232;42.502;26.014;2023-04-26T03:04:27;99021.69;;;14.11;96.39
48424;BME280;34232;42.502;26.014;2023-04-26T03:06:52;99026.16;;;14.11;96.20
48424;BME280;34232;42.502;26.014;2023-04-26T03:09:18;99029.44;;;14.13;96.61
48424;BME280;34232;42.502;26.014;2023-04-26T03:11:43;99019.22;;;14.10;96.74
48424;BME280;34232;42.502;26.014;2023-04-26T03:14:08;99026.00;;;14.12;97.18
48424;BME280;34232;42.502;26.014;2023-04-26T03:16:39;99030.25;;;14.13;97.16
48424;BME280;34232;42.502;26.014;2023-04-26T03:19:05;99032.09;;;14.13;97.50
48424;BME280;34232;42.502;26.014;2023-04-26T03:21:30;99033.56;;;14.15;97.61
48424;BME280;34232;42.502;26.014;2023-04-26T03:23:55;99037.69;;;14.18;97.61
48424;BME280;34232;42.502;26.014;2023-04-26T03:26:21;99039.66;;;14.24;97.21
48424;BME280;34232;42.502;26.014;2023-04-26T03:28:46;99044.78;;;14.25;96.89
48424;BME280;34232;42.502;26.014;2023-04-26T03:31:11;99039.13;;;14.28;96.74
48424;BME280;34232;42.502;26.014;2023-04-26T03:33:37;99048.06;;;14.27;96.71
48424;BME280;34232;42.502;26.014;2023-04-26T03:36:02;99042.56;;;14.29;96.52
48424;BME280;34232;42.502;26.014;2023-04-26T03:38:27;99054.81;;;14.30;96.01
48424;BME280;34232;42.502;26.014;2023-04-26T03:40:53;99059.13;;;14.31;96.49
48424;BME280;34232;42.502;26.014;2023-04-26T03:43:18;99066.06;;;14.32;96.97
48424;BME280;34232;42.502;26.014;2023-04-26T03:45:45;99068.06;;;14.30;97.04
48424;BME280;34232;42.502;26.014;2023-04-26T03:48:10;99070.53;;;14.31;97.25
48424;BME280;34232;42.502;26.014;2023-04-26T03:50:39;99072.19;;;14.32;96.77
48424;BME280;34232;42.502;26.014;2023-04-26T03:53:09;99060.78;;;14.32;97.73
48424;BME280;34232;42.502;26.014;2023-04-26T03:55:35;99072.84;;;14.34;97.84
48424;BME280;34232;42.502;26.014;2023-04-26T03:58:00;99077.97;;;14.36;96.83
48424;BME280;34232;42.502;26.014;2023-04-26T04:00:27;99084.09;;;14.36;96.76
48424;BME280;34232;42.502;26.014;2023-04-26T04:02:52;99075.97;;;14.38;96.11
48424;BME280;34232;42.502;26.014;2023-04-26T04:05:17;99083.75;;;14.40;96.10
48424;BME280;34232;42.502;26.014;2023-04-26T04:07:42;99081.25;;;14.38;96.77
48424;BME280;34232;42.502;26.014;2023-04-26T04:10:08;99080.94;;;14.41;96.89
48424;BME280;34232;42.502;26.014;2023-04-26T04:12:34;99086.53;;;14.46;96.99
48424;BME280;34232;42.502;26.014;2023-04-26T04:15:00;99091.47;;;14.49;97.14
48424;BME280;34232;42.502;26.014;2023-04-26T04:17:25;99099.09;;;14.52;96.80
48424;BME280;34232;42.502;26.014;2023-04-26T04:19:51;99104.03;;;14.55;96.74
48424;BME280;34232;42.502;26.014;2023-04-26T04:22:16;99098.38;;;14.58;96.43
48424;BME280;34232;42.502;26.014;2023-04-26T04:24:41;99107.34;;;14.57;96.10
48424;BME280;34232;42.502;26.014;2023-04-26T04:27:08;99107.34;;;14.57;95.90
48424;BME280;34232;42.502;26.014;2023-04-26T04:29:33;99102.56;;;14.53;96.22
48424;BME280;34232;42.502;26.014;2023-04-26T04:31:59;99115.31;;;14.49;96.04
48424;BME280;34232;42.502;26.014;2023-04-26T04:34:24;99113.66;;;14.48;95.94
48424;BME280;34232;42.502;26.014;2023-04-26T04:36:50;99115.31;;;14.49;96.04
48424;BME280;34232;42.502;26.014;2023-04-26T04:39:15;99120.28;;;14.52;94.96
48424;BME280;34232;42.502;26.014;2023-04-26T04:41:41;99125.56;;;14.52;94.59
48424;BME280;34232;42.502;26.014;2023-04-26T04:44:16;99118.63;;;14.51;94.45
48424;BME280;34232;42.502;26.014;2023-04-26T04:46:42;99117.31;;;14.47;94.85
48424;BME280;34232;42.502;26.014;2023-04-26T04:49:07;99119.63;;;14.50;94.34
48424;BME280;34232;42.502;26.014;2023-04-26T04:51:35;99111.66;;;14.50;93.72
48424;BME280;34232;42.502;26.014;2023-04-26T04:54:10;99114.31;;;14.50;93.53
48424;BME280;34232;42.502;26.014;2023-04-26T04:56:36;99117.63;;;14.52;92.65
48424;BME280;34232;42.502;26.014;2023-04-26T04:59:01;99117.44;;;14.54;93.06
48424;BME280;34232;42.502;26.014;2023-04-26T05:01:26;99119.09;;;14.55;93.39
48424;BME280;34232;42.502;26.014;2023-04-26T05:03:52;99112.97;;;14.54;93.29
48424;BME280;34232;42.502;26.014;2023-04-26T05:06:17;99119.09;;;14.55;93.14
48424;BME280;34232;42.502;26.014;2023-04-26T05:08:42;99113.31;;;14.51;93.21
48424;BME280;34232;42.502;26.014;2023-04-26T05:11:07;99120.28;;;14.52;93.53
48424;BME280;34232;42.502;26.014;2023-04-26T05:13:33;99111.50;;;14.52;93.53
48424;BME280;34232;42.502;26.014;2023-04-26T05:15:58;99114.63;;;14.55;92.99
48424;BME280;34232;42.502;26.014;2023-04-26T05:18:23;99114.81;;;14.54;93.21
48424;BME280;34232;42.502;26.014;2023-04-26T05:20:48;99115.28;;;14.57;92.86
48424;BME280;34232;42.502;26.014;2023-04-26T05:23:14;99114.31;;;14.50;90.72
48424;BME280;34232;42.502;26.014;2023-04-26T05:25:39;99106.03;;;14.53;91.25
48424;BME280;34232;42.502;26.014;2023-04-26T05:28:05;99102.56;;;14.53;92.67
48424;BME280;34232;42.502;26.014;2023-04-26T05:30:36;99104.38;;;14.52;92.40
48424;BME280;34232;42.502;26.014;2023-04-26T05:33:01;99107.34;;;14.57;92.90
48424;BME280;34232;42.502;26.014;2023-04-26T05:35:27;99105.34;;;14.59;92.23
48424;BME280;34232;42.502;26.014;2023-04-26T05:37:52;99099.72;;;14.54;90.88
48424;BME280;34232;42.502;26.014;2023-04-26T05:40:18;99101.56;;;14.54;88.44
48424;BME280;34232;42.502;26.014;2023-04-26T05:42:43;99099.72;;;14.54;89.78
48424;BME280;34232;42.502;26.014;2023-04-26T05:45:08;99104.03;;;14.55;89.86
48424;BME280;34232;42.502;26.014;2023-04-26T05:47:34;99103.03;;;14.56;90.28
48424;BME280;34232;42.502;26.014;2023-04-26T05:49:59;99103.03;;;14.56;92.02
48424;BME280;34232;42.502;26.014;2023-04-26T05:52:24;99100.03;;;14.59;91.57
48424;BME280;34232;42.502;26.014;2023-04-26T05:54:50;99092.28;;;14.58;91.64
48424;BME280;34232;42.502;26.014;2023-04-26T05:57:15;99089.44;;;14.59;90.42
48424;BME280;34232;42.502;26.014;2023-04-26T05:59:42;99090.72;;;14.41;89.80
48424;BME280;34232;42.502;26.014;2023-04-26T06:02:08;99087.06;;;14.42;91.03
48424;BME280;34232;42.502;26.014;2023-04-26T06:04:33;99083.91;;;14.38;92.33
48424;BME280;34232;42.502;26.014;2023-04-26T06:06:59;99081.94;;;14.40;92.25
48424;BME280;34232;42.502;26.014;2023-04-26T06:09:24;99074.72;;;14.26;89.31
48424;BME280;34232;42.502;26.014;2023-04-26T06:11:50;99067.59;;;14.26;92.01
48424;BME280;34232;42.502;26.014;2023-04-26T06:14:15;99076.41;;;14.19;92.71
48424;BME280;34232;42.502;26.014;2023-04-26T06:16:40;99072.28;;;14.16;93.17
48424;BME280;34232;42.502;26.014;2023-04-26T06:19:06;99073.75;;;14.19;94.54
48424;BME280;34232;42.502;26.014;2023-04-26T06:21:31;99073.41;;;14.22;94.22
48424;BME280;34232;42.502;26.014;2023-04-26T06:23:57;99076.31;;;14.35;94.91
48424;BME280;34232;42.502;26.014;2023-04-26T06:26:22;99076.25;;;14.51;96.13
48424;BME280;34232;42.502;26.014;2023-04-26T06:28:47;99071.25;;;14.56;93.42
48424;BME280;34232;42.502;26.014;2023-04-26T06:31:13;99070.50;;;14.70;91.00
48424;BME280;34232;42.502;26.014;2023-04-26T06:33:38;99074.34;;;14.83;91.68
48424;BME280;34232;42.502;26.014;2023-04-26T06:36:03;99073.31;;;14.92;88.58
48424;BME280;34232;42.502;26.014;2023-04-26T06:38:29;99079.19;;;15.02;88.74
48424;BME280;34232;42.502;26.014;2023-04-26T06:40:54;99075.34;;;15.04;86.94
48424;BME280;34232;42.502;26.014;2023-04-26T06:43:19;99084.69;;;15.15;88.51
48424;BME280;34232;42.502;26.014;2023-04-26T06:45:45;99088.09;;;15.24;88.37
48424;BME280;34232;42.502;26.014;2023-04-26T06:48:10;99079.50;;;15.22;87.09
48424;BME280;34232;42.502;26.014;2023-04-26T06:50:36;99084.91;;;15.28;87.90
48424;BME280;34232;42.502;26.014;2023-04-26T06:53:02;99086.44;;;15.08;85.42
48424;BME280;34232;42.502;26.014;2023-04-26T06:55:27;99089.13;;;15.00;84.15
48424;BME280;34232;42.502;26.014;2023-04-26T06:57:53;99090.97;;;14.99;86.61
48424;BME280;34232;42.502;26.014;2023-04-26T07:00:18;99090.25;;;15.05;88.97
48424;BME280;34232;42.502;26.014;2023-04-26T07:02:44;99089.06;;;15.08;89.70
48424;BME280;34232;42.502;26.014;2023-04-26T07:05:09;99090.13;;;15.22;91.97
48424;BME280;34232;42.502;26.014;2023-04-26T07:07:35;99087.28;;;15.23;90.04
48424;BME280;34232;42.502;26.014;2023-04-26T07:10:00;99092.78;;;15.36;87.75
48424;BME280;34232;42.502;26.014;2023-04-26T07:12:25;99095.00;;;15.48;89.71
48424;BME280;34232;42.502;26.014;2023-04-26T07:14:50;99095.00;;;15.48;86.21
48424;BME280;34232;42.502;26.014;2023-04-26T07:17:16;99089.13;;;15.37;86.18
48424;BME280;34232;42.502;26.014;2023-04-26T07:19:41;99098.19;;;15.43;86.60
48424;BME280;34232;42.502;26.014;2023-04-26T07:22:06;99095.34;;;15.45;87.14
48424;BME280;34232;42.502;26.014;2023-04-26T07:24:31;99099.09;;;15.35;87.64
48424;BME280;34232;42.502;26.014;2023-04-26T07:26:57;99088.38;;;15.29;82.43
48424;BME280;34232;42.502;26.014;2023-04-26T07:29:22;99093.31;;;15.32;81.16
48424;BME280;34232;42.502;26.014;2023-04-26T07:31:47;99092.78;;;15.36;80.63
48424;BME280;34232;42.502;26.014;2023-04-26T07:34:13;99097.09;;;15.37;81.55
48424;BME280;34232;42.502;26.014;2023-04-26T07:36:38;99096.63;;;15.34;80.77
48424;BME280;34232;42.502;26.014;2023-04-26T07:39:03;99100.16;;;15.64;83.80
48424;BME280;34232;42.502;26.014;2023-04-26T07:41:33;99094.97;;;15.70;79.88
48424;BME280;34232;42.502;26.014;2023-04-26T07:43:58;99096.16;;;15.68;75.88
48424;BME280;34232;42.502;26.014;2023-04-26T07:46:24;99099.09;;;15.73;78.84
48424;BME280;34232;42.502;26.014;2023-04-26T07:48:49;99098.31;;;15.94;76.39
48424;BME280;34232;42.502;26.014;2023-04-26T07:51:15;99098.31;;;16.08;74.85
48424;BME280;34232;42.502;26.014;2023-04-26T07:53:40;99093.63;;;16.25;76.90
48424;BME280;34232;42.502;26.014;2023-04-26T07:56:08;99097.69;;;16.42;78.44
48424;BME280;34232;42.502;26.014;2023-04-26T07:58:34;99085.78;;;16.53;74.22
48424;BME280;34232;42.502;26.014;2023-04-26T08:01:00;99080.47;;;16.74;69.99
48424;BME280;34232;42.502;26.014;2023-04-26T08:03:25;99081.97;;;17.05;70.34
48424;BME280;34232;42.502;26.014;2023-04-26T08:05:54;99081.97;;;17.26;71.47
48424;BME280;34232;42.502;26.014;2023-04-26T08:08:19;99079.25;;;17.47;69.78
48424;BME280;34232;42.502;26.014;2023-04-26T08:10:45;99085.97;;;17.65;69.39
48424;BME280;34232;42.502;26.014;2023-04-26T08:13:11;99076.13;;;17.65;66.33
48424;BME280;34232;42.502;26.014;2023-04-26T08:15:36;99082.75;;;17.76;65.13
48424;BME280;34232;42.502;26.014;2023-04-26T08:18:01;99077.84;;;17.79;61.71
48424;BME280;34232;42.502;26.014;2023-04-26T08:20:27;99079.00;;;17.64;62.43
48424;BME280;34232;42.502;26.014;2023-04-26T08:22:55;99086.91;;;17.29;62.08
48424;BME280;34232;42.502;26.014;2023-04-26T08:25:21;99085.72;;;17.38;66.29
48424;BME280;34232;42.502;26.014;2023-04-26T08:27:46;99087.44;;;17.46;62.43
48424;BME280;34232;42.502;26.014;2023-04-26T08:30:12;99088.72;;;17.57;60.99
48424;BME280;34232;42.502;26.014;2023-04-26T08:32:37;99084.34;;;17.70;65.21
48424;BME280;34232;42.502;26.014;2023-04-26T08:35:02;99087.88;;;17.77;61.47
48424;BME280;34232;42.502;26.014;2023-04-26T08:37:28;99085.94;;;17.99;59.59
48424;BME280;34232;42.502;26.014;2023-04-26T08:39:53;99081.19;;;17.95;61.01
48424;BME280;34232;42.502;26.014;2023-04-26T08:42:18;99094.50;;;17.95;60.65
48424;BME280;34232;42.502;26.014;2023-04-26T08:44:45;99087.75;;;17.92;62.10
48424;BME280;34232;42.502;26.014;2023-04-26T08:47:17;99085.56;;;18.09;59.61
48424;BME280;34232;42.502;26.014;2023-04-26T08:49:43;99085.81;;;18.21;58.82
48424;BME280;34232;42.502;26.014;2023-04-26T08:52:12;99089.56;;;18.39;57.36
48424;BME280;34232;42.502;26.014;2023-04-26T08:54:39;99082.28;;;18.61;63.58
48424;BME280;34232;42.502;26.014;2023-04-26T08:57:05;99076.97;;;18.61;56.57
48424;BME280;34232;42.502;26.014;2023-04-26T08:59:41;99089.81;;;18.51;60.04
48424;BME280;34232;42.502;26.014;2023-04-26T09:02:08;99076.47;;;18.44;54.93
48424;BME280;34232;42.502;26.014;2023-04-26T09:04:34;99076.88;;;18.41;53.48
48424;BME280;34232;42.502;26.014;2023-04-26T09:07:01;99084.75;;;18.08;53.76
48424;BME280;34232;42.502;26.014;2023-04-26T09:09:28;99087.25;;;18.16;57.47
48424;BME280;34232;42.502;26.014;2023-04-26T09:11:58;99078.44;;;18.16;54.50
48424;BME280;34232;42.502;26.014;2023-04-26T09:14:24;99081.94;;;18.16;54.08
48424;BME280;34232;42.502;26.014;2023-04-26T09:16:50;99076.84;;;18.35;55.42
48424;BME280;34232;42.502;26.014;2023-04-26T09:19:16;99067.47;;;18.52;54.23
48424;BME280;34232;42.502;26.014;2023-04-26T09:21:42;99064.69;;;18.86;53.07
48424;BME280;34232;42.502;26.014;2023-04-26T09:24:09;99064.47;;;19.34;52.72
48424;BME280;34232;42.502;26.014;2023-04-26T09:26:34;99064.03;;;19.70;52.03
48424;BME280;34232;42.502;26.014;2023-04-26T09:29:13;99063.97;;;19.90;50.94
48424;BME280;34232;42.502;26.014;2023-04-26T09:31:40;99061.63;;;20.13;52.10
48424;BME280;34232;42.502;26.014;2023-04-26T09:34:06;99064.47;;;20.18;48.00
48424;BME280;34232;42.502;26.014;2023-04-26T09:36:42;99053.84;;;20.12;48.44
48424;BME280;34232;42.502;26.014;2023-04-26T09:39:10;99057.06;;;20.20;49.48
48424;BME280;34232;42.502;26.014;2023-04-26T09:41:42;99058.78;;;20.08;50.55
48424;BME280;34232;42.502;26.014;2023-04-26T09:44:19;99048.38;;;20.32;52.15
48424;BME280;34232;42.502;26.014;2023-04-26T09:46:56;99037.59;;;20.51;49.38
48424;BME280;34232;42.502;26.014;2023-04-26T09:49:21;99030.16;;;20.60;50.25
48424;BME280;34232;42.502;26.014;2023-04-26T09:52:02;99041.44;;;20.62;48.95
48424;BME280;34232;42.502;26.014;2023-04-26T09:54:41;99050.03;;;20.39;50.24
48424;BME280;34232;42.502;26.014;2023-04-26T09:57:07;99040.97;;;20.34;50.66
48424;BME280;34232;42.502;26.014;2023-04-26T09:59:39;99041.03;;;20.20;49.27
48424;BME280;34232;42.502;26.014;2023-04-26T10:02:06;99034.94;;;20.00;48.74
48424;BME280;34232;42.502;26.014;2023-04-26T10:04:33;99039.47;;;20.06;49.73
48424;BME280;34232;42.502;26.014;2023-04-26T10:06:59;99030.34;;;20.20;49.02
48424;BME280;34232;42.502;26.014;2023-04-26T10:09:25;99037.34;;;20.21;49.45
48424;BME280;34232;42.502;26.014;2023-04-26T10:11:50;99025.59;;;20.22;50.85
48424;BME280;34232;42.502;26.014;2023-04-26T10:14:16;99022.84;;;20.36;49.86
48424;BME280;34232;42.502;26.014;2023-04-26T10:16:42;99020.50;;;20.14;46.37
48424;BME280;34232;42.502;26.014;2023-04-26T10:19:08;99024.53;;;19.92;46.07
48424;BME280;34232;42.502;26.014;2023-04-26T10:21:34;99017.19;;;20.19;47.14
48424;BME280;34232;42.502;26.014;2023-04-26T10:24:01;99011.22;;;19.72;45.65
48424;BME280;34232;42.502;26.014;2023-04-26T10:26:45;99008.16;;;20.13;48.21
48424;BME280;34232;42.502;26.014;2023-04-26T10:29:11;99001.38;;;20.17;47.60
48424;BME280;34232;42.502;26.014;2023-04-26T10:34:20;99000.94;;;20.20;48.76
48424;BME280;34232;42.502;26.014;2023-04-26T10:39:30;98997.09;;;20.48;48.48
48424;BME280;34232;42.502;26.014;2023-04-26T10:44:42;98987.56;;;20.83;46.48
48424;BME280;34232;42.502;26.014;2023-04-26T10:47:23;98998.66;;;20.87;46.58
48424;BME280;34232;42.502;26.014;2023-04-26T10:49:48;98990.81;;;20.92;45.05
48424;BME280;34232;42.502;26.014;2023-04-26T10:52:15;98994.00;;;20.51;44.92
48424;BME280;34232;42.502;26.014;2023-04-26T10:54:53;98992.84;;;20.34;45.86
48424;BME280;34232;42.502;26.014;2023-04-26T10:57:19;98990.78;;;20.36;45.57
48424;BME280;34232;42.502;26.014;2023-04-26T11:08:15;98997.38;;;20.40;47.18
48424;BME280;34232;42.502;26.014;2023-04-26T11:10:41;99012.16;;;20.36;49.65
48424;BME280;34232;42.502;26.014;2023-04-26T11:13:06;99020.94;;;20.11;55.51
48424;BME280;34232;42.502;26.014;2023-04-26T11:15:31;99012.50;;;19.63;57.45
48424;BME280;34232;42.502;26.014;2023-04-26T11:17:57;99012.97;;;19.20;60.33
48424;BME280;34232;42.502;26.014;2023-04-26T11:20:27;99013.81;;;18.88;60.62
48424;BME280;34232;42.502;26.014;2023-04-26T11:22:52;99019.06;;;18.55;62.84
48424;BME280;34232;42.502;26.014;2023-04-26T11:25:18;99023.97;;;18.32;64.75
48424;BME280;34232;42.502;26.014;2023-04-26T11:27:43;99031.31;;;18.16;66.59
48424;BME280;34232;42.502;26.014;2023-04-26T11:30:08;99031.25;;;18.03;68.22
48424;BME280;34232;42.502;26.014;2023-04-26T11:32:34;99042.22;;;17.87;69.83
48424;BME280;34232;42.502;26.014;2023-04-26T11:34:59;99049.72;;;17.70;71.10
48424;BME280;34232;42.502;26.014;2023-04-26T11:37:25;99042.78;;;17.41;70.54
48424;BME280;34232;42.502;26.014;2023-04-26T11:39:50;99055.38;;;17.26;72.61
48424;BME280;34232;42.502;26.014;2023-04-26T11:42:15;99063.50;;;17.18;75.82
48424;BME280;34232;42.502;26.014;2023-04-26T11:44:41;99068.69;;;17.05;77.51
48424;BME280;34232;42.502;26.014;2023-04-26T11:47:06;99073.16;;;16.76;80.29
48424;BME280;34232;42.502;26.014;2023-04-26T11:49:35;99077.41;;;16.71;83.79
48424;BME280;34232;42.502;26.014;2023-04-26T11:52:01;99087.16;;;16.49;84.85
48424;BME280;34232;42.502;26.014;2023-04-26T11:56:53;99092.97;;;16.38;86.33
48424;BME280;34232;42.502;26.014;2023-04-26T12:01:49;99101.94;;;16.37;82.31
48424;BME280;34232;42.502;26.014;2023-04-26T12:04:16;99097.72;;;16.28;86.02
48424;BME280;34232;42.502;26.014;2023-04-26T12:06:42;99091.59;;;16.27;85.03
48424;BME280;34232;42.502;26.014;2023-04-26T12:09:07;99103.34;;;16.18;85.73
48424;BME280;34232;42.502;26.014;2023-04-26T12:11:33;99111.78;;;16.22;86.95
48424;BME280;34232;42.502;26.014;2023-04-26T12:13:58;99117.81;;;16.16;83.23
48424;BME280;34232;42.502;26.014;2023-04-26T12:16:24;99116.50;;;16.26;82.82
48424;BME280;34232;42.502;26.014;2023-04-26T12:18:49;99113.97;;;16.18;83.36
48424;BME280;34232;42.502;26.014;2023-04-26T12:21:16;99108.03;;;16.01;84.99
48424;BME280;34232;42.502;26.014;2023-04-26T12:23:41;99101.81;;;15.80;87.73
48424;BME280;34232;42.502;26.014;2023-04-26T12:26:07;99114.19;;;15.72;88.96
48424;BME280;34232;42.502;26.014;2023-04-26T12:28:35;99111.13;;;15.61;89.15
48424;BME280;34232;42.502;26.014;2023-04-26T12:31:00;99117.66;;;15.58;88.28
48424;BME280;34232;42.502;26.014;2023-04-26T12:33:27;99111.19;;;15.53;85.50
48424;BME280;34232;42.502;26.014;2023-04-26T12:35:52;99113.03;;;15.52;86.38
48424;BME280;34232;42.502;26.014;2023-04-26T12:38:18;99110.56;;;15.51;86.12
48424;BME280;34232;42.502;26.014;2023-04-26T12:40:43;99111.78;;;15.25;87.35
48424;BME280;34232;42.502;26.014;2023-04-26T12:43:09;99103.09;;;14.94;87.83
48424;BME280;34232;42.502;26.014;2023-04-26T12:45:34;99102.50;;;14.84;90.12
48424;BME280;34232;42.502;26.014;2023-04-26T12:48:00;99094.63;;;14.76;93.16
48424;BME280;34232;42.502;26.014;2023-04-26T12:50:26;99088.56;;;14.90;94.22
48424;BME280;34232;42.502;26.014;2023-04-26T12:52:51;99087.09;;;14.87;93.98
48424;BME280;34232;42.502;26.014;2023-04-26T12:55:17;99078.59;;;14.46;92.14
48424;BME280;34232;42.502;26.014;2023-04-26T12:57:43;99078.97;;;14.35;95.31
48424;BME280;34232;42.502;26.014;2023-04-26T13:00:09;99066.13;;;14.24;96.60
48424;BME280;34232;42.502;26.014;2023-04-26T13:02:35;99069.44;;;14.26;96.83
48424;BME280;34232;42.502;26.014;2023-04-26T13:05:03;99065.31;;;14.15;96.64
48424;BME280;34232;42.502;26.014;2023-04-26T13:07:30;99065.06;;;14.02;96.29